Etusivu
METAR-TAF:

METAR-TAF

Lentoasemat :

Redstone Arsenal, Alabama, Yhdysvallat

Leveyspiiri: 34-40-43N, Pituuspiiri: 086-41-05W, korkeus merenpinnasta: 209 m

Tämänhetkinen sää

Tämä raportti tehtiin 26 minuuttia sitten, kello 13.58 UTC
Tuuli 11 kn etelästä/kaakosta puuskistuen 15 kn:hen
Lämpötila 17°C
Kosteus 68%
Ilmanpaine 1012 hPa
Näkyvyys: 14.5 km
Pilvistä 6000 ft:n korkeudessa

METAR: KHUA 191358Z AUTO 15011G15KT 9SM OVC060 17/11 A2988 RMK AO2 SLP117 T01740112

Aika: 09:24 (14:24 UTC)


TAF: puuttuu

Säähavainnot ja -ennusteet yli 4000 lentoasemalta (METAR- ja TAF-raportit).

Käytössä olevat sääasemat on merkitty karttaan keltaisilla ja punaisilla pisteillä.

Aseta hiiri pisteen päälle nähdäksesi sääaseman nimen.

Klikkaa sitten nähdäksesi säähavainnot ja -ennusteet.

Kartan vaihtaminen: klikkaa mustalla rastilla varustettuja vihreitä pisteitä, niin voit zoomata sisään; viivalla varustettua vihreää pistettä, niin voit zoomata ulos tai vihreitä nuolia, niin pääset viereisille kartoille.


METAR-TAF: